Time;durP1;ratioP1;P1;durP2;ratioP2;P2;SDS_P1;SDS_P2;PMS_P1;PMS_P2;Temp;Humidity;BMP_temperature;BMP_pressure;BME280_temperature;BME280_humidity;BME280_pressure;Samples;Min_cycle;Max_cycle;Signal;HPM_P1;HPM_P2
2024/05/04 00:02:42;;;;;;;6.47;6.07;;;13.00;99.90;;;;;;7513921;26;20232;-73
2024/05/04 00:06:13;;;;;;;6.90;6.50;;;13.00;99.90;;;;;;7518535;26;20296;-73
2024/05/04 00:09:36;;;;;;;5.90;5.53;;;13.10;99.90;;;;;;7514552;26;20274;-73
2024/05/04 00:12:59;;;;;;;6.63;6.20;;;13.40;99.90;;;;;;7505874;26;20606;-74
2024/05/04 00:16:22;;;;;;;5.97;5.53;;;13.30;99.90;;;;;;7515603;26;20236;-75
2024/05/04 00:19:45;;;;;;;6.63;6.22;;;13.20;99.90;;;;;;7518841;26;20229;-75
2024/05/04 00:23:10;;;;;;;6.55;6.15;;;13.00;99.90;;;;;;7520852;26;20279;-74
2024/05/04 00:26:34;;;;;;;6.10;5.70;;;12.90;99.90;;;;;;7509123;26;20336;-74
2024/05/04 00:29:57;;;;;;;6.25;5.82;;;13.00;99.90;;;;;;7512115;26;20228;-74
2024/05/04 00:33:20;;;;;;;6.60;6.20;;;13.10;99.90;;;;;;7521597;26;20232;-74
2024/05/04 00:36:43;;;;;;;7.57;6.88;;;13.00;99.90;;;;;;7516224;26;20229;-74
2024/05/04 00:40:10;;;;;;;6.22;5.82;;;13.20;99.90;;;;;;7521889;26;20305;-74
2024/05/04 00:43:33;;;;;;;6.43;6.03;;;13.20;99.90;;;;;;7502416;26;20267;-73
2024/05/04 00:46:56;;;;;;;6.53;6.13;;;13.20;99.90;;;;;;7504659;26;20271;-75
2024/05/04 00:50:19;;;;;;;6.60;6.05;;;13.10;99.90;;;;;;7489107;26;20237;-73
2024/05/04 00:53:43;;;;;;;6.88;6.28;;;13.30;99.90;;;;;;7506630;26;20336;-73
2024/05/04 00:57:09;;;;;;;7.45;6.85;;;13.10;99.90;;;;;;7503536;26;20264;-74
2024/05/04 01:00:32;;;;;;;6.85;6.35;;;13.10;99.90;;;;;;7512542;26;20365;-74
2024/05/04 01:03:55;;;;;;;6.78;6.35;;;13.20;99.90;;;;;;7502793;26;20238;-74
2024/05/04 01:07:18;;;;;;;6.35;5.78;;;13.30;99.90;;;;;;7503997;26;20271;-74
2024/05/04 01:10:42;;;;;;;6.82;6.43;;;13.20;99.90;;;;;;7509577;26;20576;-74
2024/05/04 01:14:07;;;;;;;6.80;6.30;;;13.20;99.90;;;;;;7505430;26;20283;-74
2024/05/04 01:17:30;;;;;;;6.50;6.10;;;13.20;99.90;;;;;;7518450;26;20240;-73
2024/05/04 01:20:53;;;;;;;7.05;6.63;;;13.20;99.90;;;;;;7514021;26;20669;-74
2024/05/04 01:24:19;;;;;;;6.50;5.97;;;13.20;99.90;;;;;;7517908;26;20229;-74
2024/05/04 01:27:42;;;;;;;7.70;7.20;;;13.20;99.90;;;;;;7519583;26;20324;-74
2024/05/04 01:31:07;;;;;;;6.88;6.38;;;13.10;99.90;;;;;;7516229;26;20581;-74
2024/05/04 01:34:30;;;;;;;7.40;6.90;;;13.00;99.90;;;;;;7518641;26;20352;-75
2024/05/04 01:37:53;;;;;;;7.70;7.20;;;13.00;99.90;;;;;;7523577;26;20272;-76
2024/05/04 01:41:23;;;;;;;6.88;6.47;;;13.20;99.90;;;;;;7511914;26;20267;-73
2024/05/04 01:44:46;;;;;;;7.07;6.57;;;13.30;99.90;;;;;;7494489;26;20221;-73
2024/05/04 01:48:09;;;;;;;6.60;6.20;;;13.30;99.90;;;;;;7511068;26;20267;-74
2024/05/04 01:51:32;;;;;;;8.10;7.60;;;13.30;99.90;;;;;;7515492;26;20233;-74
2024/05/04 01:54:55;;;;;;;8.25;7.57;;;13.20;99.90;;;;;;7519668;26;20233;-74
2024/05/04 01:58:21;;;;;;;7.93;7.32;;;13.20;99.90;;;;;;7516792;26;20236;-74
2024/05/04 02:01:44;;;;;;;8.18;7.57;;;13.30;99.90;;;;;;7515598;26;20232;-74
2024/05/04 02:05:07;;;;;;;7.20;6.70;;;13.30;99.90;;;;;;7518901;26;20220;-74
2024/05/04 02:08:30;;;;;;;7.47;6.97;;;13.40;99.90;;;;;;7509028;26;20228;-74
2024/05/04 02:11:54;;;;;;;8.00;7.40;;;13.30;99.90;;;;;;7516940;26;20275;-73
2024/05/04 02:15:19;;;;;;;7.60;7.10;;;13.40;99.90;;;;;;7509940;26;20237;-73
2024/05/04 02:18:42;;;;;;;7.82;7.05;;;13.50;99.90;;;;;;7510764;26;21102;-73
2024/05/04 02:22:06;;;;;;;7.28;6.88;;;13.50;99.90;;;;;;7516929;26;20271;-75
2024/05/04 02:25:29;;;;;;;7.40;6.90;;;13.50;99.90;;;;;;7513171;26;20775;-74
2024/05/04 02:28:52;;;;;;;8.10;7.55;;;13.30;99.90;;;;;;7521421;26;20240;-74
2024/05/04 02:32:17;;;;;;;8.82;8.18;;;13.30;99.90;;;;;;7509149;26;20271;-74
2024/05/04 02:35:40;;;;;;;8.68;8.02;;;13.30;99.90;;;;;;7511840;26;20407;-73
2024/05/04 02:39:04;;;;;;;8.65;8.05;;;13.20;99.90;;;;;;7504436;26;20329;-74
2024/05/04 02:42:27;;;;;;;9.20;8.60;;;13.20;99.90;;;;;;7512873;26;20228;-73
2024/05/04 02:45:50;;;;;;;8.77;7.97;;;13.30;99.90;;;;;;7516257;26;20237;-74
2024/05/04 02:49:15;;;;;;;7.90;7.30;;;13.30;99.90;;;;;;7498747;26;20229;-73
2024/05/04 02:52:38;;;;;;;7.63;7.13;;;13.40;99.90;;;;;;7510301;26;20262;-74
2024/05/04 02:56:01;;;;;;;7.95;7.35;;;13.40;99.90;;;;;;7523475;26;20563;-74
2024/05/04 02:59:24;;;;;;;7.80;7.30;;;13.50;99.90;;;;;;7522234;26;20232;-73
2024/05/04 03:02:47;;;;;;;8.85;8.15;;;13.40;99.90;;;;;;7521583;26;20367;-73
2024/05/04 03:06:13;;;;;;;9.50;8.80;;;13.50;99.90;;;;;;7512646;26;20228;-73
2024/05/04 03:09:36;;;;;;;8.50;7.80;;;13.40;99.90;;;;;;7513908;26;20220;-73
2024/05/04 03:13:00;;;;;;;7.90;7.38;;;13.50;99.90;;;;;;7520236;26;20596;-74
2024/05/04 03:16:23;;;;;;;9.35;8.50;;;13.50;99.90;;;;;;7519179;26;20305;-74
2024/05/04 03:19:46;;;;;;;8.85;8.13;;;13.50;99.90;;;;;;7522669;26;20248;-74
2024/05/04 03:23:12;;;;;;;9.07;8.38;;;13.50;99.90;;;;;;7510916;26;20272;-74
2024/05/04 03:26:38;;;;;;;9.15;8.45;;;13.50;99.90;;;;;;7492496;26;20229;-73
2024/05/04 03:30:01;;;;;;;9.40;8.75;;;13.30;99.90;;;;;;7511224;26;20230;-74
2024/05/04 03:33:24;;;;;;;11.10;10.10;;;13.30;99.90;;;;;;7513524;26;20232;-74
2024/05/04 03:36:49;;;;;;;9.57;8.77;;;13.20;99.90;;;;;;7517921;26;20584;-73
2024/05/04 03:40:14;;;;;;;9.52;8.82;;;13.20;99.90;;;;;;7511869;26;20232;-74
2024/05/04 03:43:38;;;;;;;9.85;9.15;;;13.20;99.90;;;;;;7507822;26;20236;-74
2024/05/04 03:47:01;;;;;;;11.00;10.20;;;13.20;99.90;;;;;;7519578;26;20228;-74
2024/05/04 03:50:24;;;;;;;10.38;9.57;;;13.00;99.90;;;;;;7502218;26;20283;-74
2024/05/04 03:53:48;;;;;;;11.18;10.07;;;13.20;99.90;;;;;;7505140;26;20318;-73
2024/05/04 03:57:13;;;;;;;11.23;10.32;;;13.10;99.90;;;;;;7521088;26;20289;-74
2024/05/04 04:00:36;;;;;;;10.90;10.10;;;13.20;99.90;;;;;;7520473;26;20278;-74
2024/05/04 04:03:59;;;;;;;11.55;10.73;;;13.20;99.90;;;;;;7525883;26;20274;-75
2024/05/04 04:07:22;;;;;;;10.52;9.63;;;13.30;99.90;;;;;;7523129;26;20232;-73
2024/05/04 04:10:45;;;;;;;10.85;10.05;;;13.30;99.90;;;;;;7508405;26;20245;-74
2024/05/04 04:14:11;;;;;;;11.48;10.57;;;13.20;99.90;;;;;;7520213;26;20532;-73
2024/05/04 04:17:35;;;;;;;9.88;9.18;;;13.20;99.90;;;;;;7523317;26;20231;-74
2024/05/04 04:20:59;;;;;;;10.52;9.68;;;13.40;99.90;;;;;;7515761;26;20264;-75
2024/05/04 04:24:22;;;;;;;10.68;9.85;;;13.50;99.90;;;;;;7523960;26;20270;-75
2024/05/04 04:27:45;;;;;;;11.18;10.38;;;13.40;99.90;;;;;;7527017;26;20236;-73
2024/05/04 04:31:11;;;;;;;10.50;9.70;;;13.50;99.90;;;;;;7525310;26;20278;-75
2024/05/04 04:34:34;;;;;;;11.57;10.57;;;13.70;99.90;;;;;;7510430;26;20282;-73
2024/05/04 04:37:57;;;;;;;10.20;9.45;;;13.70;99.90;;;;;;7527182;26;20240;-74
2024/05/04 04:41:20;;;;;;;10.90;10.10;;;13.90;99.90;;;;;;7526652;26;20267;-74
2024/05/04 04:44:43;;;;;;;11.45;10.55;;;13.90;99.90;;;;;;7520380;26;20235;-74
2024/05/04 04:48:09;;;;;;;10.52;9.80;;;13.80;99.90;;;;;;7526591;26;20232;-74
2024/05/04 04:51:32;;;;;;;11.40;10.45;;;13.80;99.90;;;;;;7515018;26;20731;-74
2024/05/04 04:54:55;;;;;;;12.05;10.98;;;13.60;99.90;;;;;;7513944;26;20268;-75
2024/05/04 04:58:18;;;;;;;10.20;9.43;;;13.60;99.90;;;;;;7519848;26;20233;-74
2024/05/04 05:01:43;;;;;;;11.52;10.63;;;14.00;99.90;;;;;;7527882;26;20228;-73
2024/05/04 05:05:09;;;;;;;11.10;10.27;;;14.30;99.90;;;;;;7525396;26;20249;-74
2024/05/04 05:08:32;;;;;;;12.63;11.38;;;14.30;99.90;;;;;;7516939;26;20332;-75
2024/05/04 05:11:54;;;;;;;11.90;11.00;;;14.40;99.90;;;;;;7523559;26;20373;-74
2024/05/04 05:15:17;;;;;;;11.18;10.23;;;14.50;99.90;;;;;;7525191;26;20240;-75
2024/05/04 05:18:40;;;;;;;11.32;10.43;;;14.60;99.90;;;;;;7518735;26;20228;-75
2024/05/04 05:22:07;;;;;;;10.32;9.52;;;14.80;99.90;;;;;;7499942;26;20276;-75
2024/05/04 05:25:30;;;;;;;10.93;10.02;;;14.60;99.90;;;;;;7522331;26;20228;-75
2024/05/04 05:28:53;;;;;;;11.32;10.43;;;14.50;99.90;;;;;;7525496;26;20334;-75
2024/05/04 05:32:16;;;;;;;9.60;8.90;;;14.90;99.90;;;;;;7526449;26;20779;-74
2024/05/04 05:35:39;;;;;;;10.70;9.90;;;15.00;99.90;;;;;;7525062;26;20651;-74
2024/05/04 05:39:04;;;;;;;12.50;11.48;;;15.10;99.90;;;;;;7517643;26;20233;-74
2024/05/04 05:42:27;;;;;;;10.63;9.82;;;15.10;99.90;;;;;;7518719;26;20228;-75
2024/05/04 05:45:50;;;;;;;10.32;9.52;;;15.10;99.90;;;;;;7515157;26;20820;-73
2024/05/04 05:49:13;;;;;;;9.85;9.15;;;14.90;99.90;;;;;;7516238;26;20271;-74
2024/05/04 05:52:36;;;;;;;10.30;9.50;;;15.00;99.90;;;;;;7519353;26;20270;-75
2024/05/04 05:56:02;;;;;;;10.32;9.45;;;15.00;99.90;;;;;;7504069;26;20765;-75
2024/05/04 05:59:25;;;;;;;9.52;8.85;;;14.80;99.90;;;;;;7525219;26;20271;-75
2024/05/04 06:02:48;;;;;;;9.98;9.18;;;15.00;99.90;;;;;;7513620;26;20235;-75
2024/05/04 06:06:12;;;;;;;9.38;8.75;;;15.40;99.90;;;;;;7530311;26;20833;-75
2024/05/04 06:09:35;;;;;;;9.80;9.00;;;15.60;99.90;;;;;;7531672;26;20757;-75
2024/05/04 06:13:01;;;;;;;8.98;8.27;;;15.50;99.90;;;;;;7527339;26;20224;-75
2024/05/04 06:16:24;;;;;;;8.13;7.63;;;15.80;99.90;;;;;;7530004;26;20667;-75
2024/05/04 06:19:48;;;;;;;9.25;8.55;;;16.10;99.90;;;;;;7501239;26;20225;-74
2024/05/04 06:23:12;;;;;;;7.88;7.38;;;16.20;99.90;;;;;;7509275;26;20271;-76
2024/05/04 06:26:35;;;;;;;8.20;7.60;;;16.20;99.90;;;;;;7499564;26;20272;-75
2024/05/04 06:30:01;;;;;;;9.07;8.38;;;16.10;99.90;;;;;;7518001;26;20228;-76
2024/05/04 06:33:24;;;;;;;8.38;7.57;;;16.40;99.90;;;;;;7523372;26;20723;-74
2024/05/04 06:36:47;;;;;;;8.68;8.07;;;16.60;99.90;;;;;;7504490;26;20245;-75
2024/05/04 06:40:11;;;;;;;7.18;6.65;;;16.20;99.90;;;;;;7514097;26;20224;-75
2024/05/04 06:43:34;;;;;;;7.40;6.80;;;16.70;99.90;;;;;;7508259;26;20232;-75
2024/05/04 06:47:00;;;;;;;7.60;6.90;;;16.70;99.90;;;;;;7523164;26;20722;-76
2024/05/04 06:50:23;;;;;;;9.55;8.73;;;16.90;99.90;;;;;;7525191;26;20337;-75
2024/05/04 06:53:46;;;;;;;7.57;6.90;;;17.20;99.90;;;;;;7530781;26;20248;-76
2024/05/04 06:57:10;;;;;;;7.32;6.63;;;17.10;99.90;;;;;;7529357;26;20275;-77
2024/05/04 07:00:33;;;;;;;7.03;6.43;;;17.50;99.90;;;;;;7530663;26;20233;-76
2024/05/04 07:03:59;;;;;;;7.28;6.68;;;17.60;99.90;;;;;;7512124;26;20232;-75
2024/05/04 07:07:22;;;;;;;6.47;6.07;;;17.60;99.90;;;;;;7515739;26;20274;-76
2024/05/04 07:10:45;;;;;;;6.07;5.78;;;17.60;99.90;;;;;;7529267;26;20240;-76
2024/05/04 07:14:08;;;;;;;6.72;5.78;;;17.80;99.90;;;;;;7528831;26;20283;-77
2024/05/04 07:17:31;;;;;;;6.63;6.13;;;17.70;99.90;;;;;;7529944;26;20228;-77
2024/05/04 07:20:56;;;;;;;6.30;5.70;;;18.10;99.90;;;;;;7523403;26;20272;-76
2024/05/04 07:24:19;;;;;;;6.70;6.28;;;18.30;99.90;;;;;;7509078;26;20233;-76
2024/05/04 07:27:42;;;;;;;6.32;5.82;;;18.10;99.90;;;;;;7529408;26;20232;-76
2024/05/04 07:31:06;;;;;;;8.05;7.45;;;18.30;99.90;;;;;;7520652;26;20233;-75
2024/05/04 07:34:29;;;;;;;6.43;5.82;;;18.40;99.90;;;;;;7523143;26;20276;-77
2024/05/04 07:37:54;;;;;;;6.57;6.18;;;18.30;99.90;;;;;;7520927;26;20232;-77
2024/05/04 07:41:17;;;;;;;6.15;5.65;;;18.50;99.90;;;;;;7530319;26;20220;-76
2024/05/04 07:44:41;;;;;;;6.15;5.65;;;18.50;99.90;;;;;;7529303;26;20271;-77
2024/05/04 07:48:04;;;;;;;6.05;5.45;;;18.80;99.90;;;;;;7520151;26;20229;-76
2024/05/04 07:51:27;;;;;;;6.03;5.38;;;19.00;99.90;;;;;;7528172;26;20280;-76
2024/05/04 07:54:52;;;;;;;6.70;6.28;;;19.00;99.90;;;;;;7529270;26;20270;-75
2024/05/04 07:58:15;;;;;;;5.97;5.38;;;19.50;99.90;;;;;;7515401;26;20316;-77
2024/05/04 08:01:38;;;;;;;5.57;5.18;;;19.50;99.90;;;;;;7530673;26;20232;-78
2024/05/04 08:05:01;;;;;;;5.30;4.80;;;20.50;99.90;;;;;;7523667;26;20669;-79
2024/05/04 08:08:24;;;;;;;5.05;4.75;;;21.90;99.90;;;;;;7531681;26;20232;-78
2024/05/04 08:11:49;;;;;;;4.85;4.45;;;23.10;99.90;;;;;;7525743;26;20228;-79
2024/05/04 08:15:12;;;;;;;4.05;3.83;;;24.00;99.50;;;;;;7514272;26;20344;-78
2024/05/04 08:18:35;;;;;;;4.22;3.75;;;25.10;98.10;;;;;;7526128;26;20233;-78
2024/05/04 08:21:58;;;;;;;4.65;4.25;;;25.80;92.80;;;;;;7529259;26;20228;-79
2024/05/04 08:25:21;;;;;;;5.35;5.00;;;25.30;92.10;;;;;;7528887;26;20228;-80
2024/05/04 08:28:47;;;;;;;4.55;3.83;;;25.80;92.80;;;;;;7520217;26;20726;-78
2024/05/04 08:32:10;;;;;;;3.58;3.38;;;26.60;90.60;;;;;;7518885;26;20326;-80
2024/05/04 08:35:33;;;;;;;4.15;3.85;;;26.40;87.00;;;;;;7515034;26;20232;-78
2024/05/04 08:38:56;;;;;;;3.75;3.55;;;25.70;86.90;;;;;;7530746;26;20270;-78
2024/05/04 08:42:19;;;;;;;4.68;4.38;;;25.60;87.20;;;;;;7529501;26;20228;-81
2024/05/04 08:45:47;;;;;;;4.28;3.97;;;25.60;87.40;;;;;;7511880;26;20562;-81
2024/05/04 08:49:11;;;;;;;4.00;3.72;;;26.40;87.00;;;;;;7528891;26;20228;-80
2024/05/04 08:52:35;;;;;;;4.82;4.43;;;27.70;82.20;;;;;;7529045;26;20726;-81
2024/05/04 08:56:06;;;;;;;4.57;4.28;;;28.20;80.20;;;;;;7519441;26;20224;-81
2024/05/04 08:59:31;;;;;;;4.43;4.13;;;28.10;77.10;;;;;;7529126;26;20268;-81
2024/05/04 09:02:58;;;;;;;4.68;4.38;;;27.20;77.80;;;;;;7512313;26;20267;-81
2024/05/04 09:06:21;;;;;;;4.70;4.40;;;27.50;77.70;;;;;;7529831;26;20228;-82
2024/05/04 09:09:44;;;;;;;5.10;4.80;;;27.30;78.20;;;;;;7529073;26;20769;-82
2024/05/04 09:13:08;;;;;;;4.93;4.53;;;29.00;76.80;;;;;;7516447;26;20241;-82
2024/05/04 09:16:31;;;;;;;4.85;4.50;;;29.80;72.90;;;;;;7527996;26;20278;-82
2024/05/04 09:19:56;;;;;;;5.15;4.82;;;29.00;72.70;;;;;;7528411;26;20270;-82
2024/05/04 09:23:20;;;;;;;6.15;5.75;;;28.30;74.30;;;;;;7528515;26;20773;-80
2024/05/04 09:26:43;;;;;;;5.00;4.60;;;29.00;71.80;;;;;;7528408;26;20232;-80
2024/05/04 09:30:07;;;;;;;5.00;4.60;;;28.70;71.60;;;;;;7529339;26;20258;-80
2024/05/04 09:33:30;;;;;;;5.55;4.55;;;29.00;71.50;;;;;;7521942;26;20232;-81
2024/05/04 09:36:59;;;;;;;5.40;5.10;;;29.20;71.00;;;;;;7528828;26;20236;-80
2024/05/04 09:40:23;;;;;;;6.10;5.70;;;28.90;70.60;;;;;;7511577;26;20221;-80
2024/05/04 09:43:47;;;;;;;5.75;5.35;;;28.90;69.80;;;;;;7526774;26;20244;-80
2024/05/04 09:47:12;;;;;;;7.28;6.78;;;28.70;69.50;;;;;;7528782;26;20232;-80
2024/05/04 09:50:38;;;;;;;5.68;5.35;;;28.10;71.10;;;;;;7529103;26;20270;-80
2024/05/04 09:54:04;;;;;;;6.03;5.60;;;28.10;70.90;;;;;;7528695;26;20232;-80
2024/05/04 09:57:32;;;;;;;5.50;5.10;;;28.50;70.30;;;;;;7513090;26;20614;-82
2024/05/04 10:00:58;;;;;;;6.40;5.93;;;28.70;69.90;;;;;;7518940;26;20227;-80
2024/05/04 10:04:25;;;;;;;5.82;5.43;;;28.50;69.60;;;;;;7528770;26;20232;-81
2024/05/04 10:07:50;;;;;;;5.72;5.32;;;28.20;70.80;;;;;;7528416;26;20228;-78
2024/05/04 10:11:17;;;;;;;5.28;4.88;;;28.60;69.80;;;;;;7505942;26;20228;-83
2024/05/04 10:14:43;;;;;;;5.47;5.10;;;28.50;69.00;;;;;;7522030;26;20403;-83
2024/05/04 10:18:11;;;;;;;6.45;6.03;;;28.00;69.40;;;;;;7525757;26;20271;-82
2024/05/04 10:21:34;;;;;;;5.05;4.57;;;27.90;70.40;;;;;;7526837;26;20282;-81
2024/05/04 10:24:57;;;;;;;5.88;5.47;;;28.00;71.20;;;;;;7527567;26;20316;-78
2024/05/04 10:28:22;;;;;;;11.20;10.48;;;28.90;69.70;;;;;;7521055;26;20220;-80
2024/05/04 10:31:46;;;;;;;6.05;5.63;;;29.40;68.40;;;;;;7472494;26;20233;-81
2024/05/04 10:35:09;;;;;;;5.70;5.30;;;28.80;68.60;;;;;;7523219;26;20232;-81
2024/05/04 10:38:32;;;;;;;5.82;5.53;;;29.00;68.40;;;;;;7501410;26;20336;-81
2024/05/04 10:41:55;;;;;;;6.30;5.90;;;28.50;69.60;;;;;;7513551;26;20781;-82
2024/05/04 10:45:21;;;;;;;7.22;6.82;;;28.50;69.40;;;;;;7528706;26;20279;-80
2024/05/04 10:48:44;;;;;;;8.05;7.55;;;28.50;68.90;;;;;;7518517;26;20232;-81
2024/05/04 10:52:08;;;;;;;7.05;6.55;;;29.00;69.20;;;;;;7518435;26;20272;-81
2024/05/04 10:55:31;;;;;;;6.68;6.28;;;28.80;68.20;;;;;;7532873;26;20236;-80
2024/05/04 10:58:54;;;;;;;5.45;5.15;;;27.90;68.70;;;;;;7533190;26;20232;-81
2024/05/04 11:02:20;;;;;;;6.10;5.60;;;27.90;70.10;;;;;;7532158;26;20232;-80
2024/05/04 11:05:43;;;;;;;7.00;6.60;;;28.40;69.40;;;;;;7532137;26;20651;-81
2024/05/04 11:09:07;;;;;;;6.53;6.13;;;28.30;69.00;;;;;;7520402;26;20228;-80
2024/05/04 11:12:30;;;;;;;6.65;6.25;;;27.80;69.60;;;;;;7532359;26;20727;-81
2024/05/04 11:15:53;;;;;;;6.78;6.32;;;28.50;68.70;;;;;;7474328;26;20296;-82
2024/05/04 11:19:23;;;;;;;6.35;5.95;;;28.20;69.10;;;;;;7518423;26;20232;-81
2024/05/04 11:22:51;;;;;;;6.43;5.93;;;27.70;70.20;;;;;;7522852;26;20272;-80
2024/05/04 11:26:14;;;;;;;6.20;5.80;;;28.00;69.90;;;;;;7528470;26;20232;-81
2024/05/04 11:29:37;;;;;;;6.07;5.68;;;28.20;69.40;;;;;;7532532;26;20236;-81
2024/05/04 11:33:00;;;;;;;6.50;6.00;;;28.10;69.90;;;;;;7532099;26;20288;-82
2024/05/04 11:36:25;;;;;;;5.50;5.18;;;28.50;68.80;;;;;;7532080;26;20232;-81
2024/05/04 11:39:48;;;;;;;7.13;6.53;;;27.60;70.10;;;;;;7531117;26;20267;-79
2024/05/04 11:43:11;;;;;;;6.75;6.35;;;27.10;71.20;;;;;;7531624;26;20233;-80
2024/05/04 11:46:34;;;;;;;6.85;6.25;;;26.50;72.60;;;;;;7505572;26;20291;-80
2024/05/04 11:49:57;;;;;;;7.55;7.05;;;26.00;74.10;;;;;;7531741;26;20236;-81
2024/05/04 11:53:23;;;;;;;7.22;6.82;;;26.00;74.20;;;;;;7532078;26;20719;-79
2024/05/04 11:56:46;;;;;;;6.97;6.53;;;25.30;74.80;;;;;;7519890;26;20241;-79
2024/05/04 12:00:12;;;;;;;7.60;6.75;;;25.00;76.50;;;;;;7528188;26;20399;-81
2024/05/04 12:03:35;;;;;;;6.80;6.05;;;24.90;77.10;;;;;;7524558;26;20228;-79
2024/05/04 12:06:58;;;;;;;6.88;6.43;;;25.10;76.80;;;;;;7530694;26;20232;-80
2024/05/04 12:10:25;;;;;;;6.63;6.03;;;25.10;77.60;;;;;;7530711;26;20332;-81
2024/05/04 12:13:50;;;;;;;6.18;5.78;;;25.30;77.60;;;;;;7530284;26;20236;-79
2024/05/04 12:17:13;;;;;;;6.70;6.30;;;25.50;77.60;;;;;;7510341;26;20263;-80
2024/05/04 12:20:36;;;;;;;6.60;6.20;;;25.20;78.30;;;;;;7511662;26;20253;-79
2024/05/04 12:23:59;;;;;;;6.72;6.22;;;24.80;79.40;;;;;;7510803;26;20237;-78
2024/05/04 12:27:25;;;;;;;7.72;7.10;;;25.40;78.30;;;;;;7526435;26;20232;-81
2024/05/04 12:30:48;;;;;;;7.55;6.95;;;25.40;78.10;;;;;;7531220;26;20579;-80
2024/05/04 12:34:11;;;;;;;7.20;6.70;;;25.40;78.70;;;;;;7530840;26;20305;-79
2024/05/04 12:37:34;;;;;;;5.80;5.43;;;25.20;78.40;;;;;;7518651;26;20309;-78
2024/05/04 12:40:57;;;;;;;6.38;5.97;;;25.20;78.40;;;;;;7513283;26;20309;-80
2024/05/04 12:44:23;;;;;;;5.90;5.50;;;25.20;78.80;;;;;;7517113;26;20233;-79
2024/05/04 12:47:46;;;;;;;6.78;6.28;;;25.20;79.00;;;;;;7513589;26;20616;-81
2024/05/04 12:51:09;;;;;;;6.25;5.85;;;25.10;79.50;;;;;;7528986;26;20297;-80
2024/05/04 12:54:35;;;;;;;6.75;6.28;;;25.10;80.10;;;;;;7530653;26;20228;-78
2024/05/04 12:57:58;;;;;;;6.82;6.30;;;25.00;81.00;;;;;;7519454;26;20777;-81
2024/05/04 13:01:23;;;;;;;6.15;5.60;;;25.20;81.00;;;;;;7529044;26;20270;-79
2024/05/04 13:04:47;;;;;;;5.80;5.43;;;25.50;80.30;;;;;;7528104;26;20232;-79
2024/05/04 13:08:10;;;;;;;5.47;5.13;;;25.70;80.10;;;;;;7522243;26;20766;-80
2024/05/04 13:11:33;;;;;;;5.53;5.15;;;26.00;78.60;;;;;;7519341;26;20275;-79
2024/05/04 13:14:56;;;;;;;5.93;5.53;;;26.10;78.00;;;;;;7528670;26;20237;-80
2024/05/04 13:18:22;;;;;;;5.68;5.38;;;26.10;78.00;;;;;;7522740;26;20269;-79
2024/05/04 13:21:45;;;;;;;5.75;5.22;;;26.00;78.40;;;;;;7506736;26;20228;-81
2024/05/04 13:25:09;;;;;;;5.40;5.00;;;26.00;79.00;;;;;;7525262;26;20236;-81
2024/05/04 13:28:31;;;;;;;6.10;5.80;;;25.10;80.60;;;;;;7518157;26;20232;-81
2024/05/04 13:31:55;;;;;;;7.10;5.78;;;25.70;79.90;;;;;;7526919;26;20228;-81
2024/05/04 13:35:20;;;;;;;5.68;5.30;;;25.80;78.90;;;;;;7526744;26;20270;-80
2024/05/04 13:38:44;;;;;;;5.03;4.72;;;25.90;79.10;;;;;;7516881;26;20253;-80
2024/05/04 13:42:09;;;;;;;5.97;5.47;;;26.10;78.40;;;;;;7488475;26;20579;-79
2024/05/04 13:45:34;;;;;;;6.50;6.00;;;26.30;78.00;;;;;;7526005;26;20774;-79
2024/05/04 13:48:58;;;;;;;6.47;5.88;;;26.00;78.10;;;;;;7505366;26;20561;-81
2024/05/04 13:52:23;;;;;;;5.80;5.38;;;26.00;79.00;;;;;;7518557;26;20268;-80
2024/05/04 13:55:46;;;;;;;5.45;5.13;;;26.10;78.50;;;;;;7524262;26;20609;-79
2024/05/04 13:59:09;;;;;;;4.65;4.35;;;26.20;78.10;;;;;;7523948;26;20228;-79
2024/05/04 14:02:32;;;;;;;5.43;4.95;;;25.60;78.90;;;;;;7523641;26;20232;-81
2024/05/04 14:05:56;;;;;;;4.80;4.47;;;26.00;79.00;;;;;;7519741;26;20220;-79
2024/05/04 14:09:22;;;;;;;5.40;5.00;;;26.30;79.00;;;;;;7523876;26;20283;-80
2024/05/04 14:12:46;;;;;;;5.93;5.43;;;26.40;78.60;;;;;;7516916;26;20232;-79
2024/05/04 14:16:09;;;;;;;5.50;5.20;;;26.80;78.30;;;;;;7521867;26;20244;-79
2024/05/04 14:19:32;;;;;;;5.30;4.90;;;26.90;78.10;;;;;;7513599;26;20278;-79
2024/05/04 14:22:55;;;;;;;5.40;4.90;;;26.80;77.70;;;;;;7523002;26;20340;-82
2024/05/04 14:26:21;;;;;;;4.78;4.38;;;26.90;77.90;;;;;;7509618;26;20224;-79
2024/05/04 14:29:44;;;;;;;5.57;4.82;;;27.10;76.80;;;;;;7528782;26;20240;-80
2024/05/04 14:33:07;;;;;;;5.47;4.85;;;26.60;76.90;;;;;;7528180;26;20224;-79
2024/05/04 14:36:29;;;;;;;5.00;4.70;;;26.60;77.70;;;;;;7516788;26;20232;-79
2024/05/04 14:39:52;;;;;;;5.00;4.70;;;26.70;76.90;;;;;;7526510;26;20310;-81
2024/05/04 14:43:18;;;;;;;4.63;4.32;;;26.70;76.10;;;;;;7513793;26;20735;-79
2024/05/04 14:46:41;;;;;;;4.88;4.50;;;26.40;76.70;;;;;;7523532;26;20228;-81
2024/05/04 14:50:01;;;;;;;4.82;4.53;;;26.20;77.60;;;;;;7515872;26;20669;-79
2024/05/04 14:53:25;;;;;;;5.10;4.80;;;26.40;77.10;;;;;;7525800;26;20769;-81
2024/05/04 14:56:48;;;;;;;5.63;5.25;;;26.30;77.00;;;;;;7526401;26;20232;-79
2024/05/04 15:00:15;;;;;;;5.40;4.90;;;26.10;77.50;;;;;;7522520;26;20228;-79
2024/05/04 15:03:38;;;;;;;5.32;5.03;;;26.20;77.10;;;;;;7520227;26;20575;-81
2024/05/04 15:07:01;;;;;;;5.10;4.80;;;26.00;77.50;;;;;;7524471;26;20224;-80
2024/05/04 15:10:24;;;;;;;6.57;5.97;;;26.10;76.60;;;;;;7507140;26;20230;-80
2024/05/04 15:13:51;;;;;;;5.82;5.28;;;26.20;77.90;;;;;;7514892;26;20232;-79
2024/05/04 15:17:17;;;;;;;4.80;4.50;;;26.30;77.50;;;;;;7523886;26;20244;-81
2024/05/04 15:20:41;;;;;;;5.03;4.63;;;26.40;76.60;;;;;;7507767;26;20232;-79
2024/05/04 15:24:04;;;;;;;4.60;4.30;;;26.50;76.90;;;;;;7525330;26;20275;-80
2024/05/04 15:27:27;;;;;;;5.00;4.70;;;26.30;77.20;;;;;;7525895;26;20278;-79
2024/05/04 15:30:50;;;;;;;5.35;5.05;;;26.00;77.90;;;;;;7524825;26;20240;-79
2024/05/04 15:34:16;;;;;;;5.60;5.10;;;25.90;77.80;;;;;;7510945;26;20271;-80
2024/05/04 15:37:39;;;;;;;5.50;5.10;;;26.00;78.30;;;;;;7526632;26;20228;-78
2024/05/04 15:41:02;;;;;;;5.38;5.07;;;26.00;78.20;;;;;;7525414;26;20267;-79
2024/05/04 15:44:25;;;;;;;4.72;4.43;;;26.00;77.90;;;;;;7525955;26;20232;-80
2024/05/04 15:47:48;;;;;;;5.97;5.68;;;25.60;78.60;;;;;;7516148;26;20228;-79
2024/05/04 15:51:14;;;;;;;28.55;21.63;;;25.50;78.90;;;;;;7506362;26;20229;-79
2024/05/04 15:54:37;;;;;;;5.55;4.72;;;25.60;78.70;;;;;;7490601;26;20229;-79
2024/05/04 15:58:00;;;;;;;5.80;5.30;;;25.50;79.30;;;;;;7521631;26;20278;-81
2024/05/04 16:01:23;;;;;;;5.45;5.13;;;25.40;79.60;;;;;;7525316;26;20606;-81
2024/05/04 16:04:46;;;;;;;5.38;4.95;;;25.30;80.10;;;;;;7527261;26;20236;-80
2024/05/04 16:08:12;;;;;;;5.65;5.15;;;25.00;81.20;;;;;;7512077;26;20563;-81
2024/05/04 16:11:35;;;;;;;5.13;4.75;;;24.90;82.10;;;;;;7506958;26;20244;-79
2024/05/04 16:14:58;;;;;;;6.53;5.90;;;25.00;82.00;;;;;;7510753;26;20332;-80
2024/05/04 16:18:21;;;;;;;6.43;5.47;;;24.80;82.20;;;;;;7526963;26;20274;-81
2024/05/04 16:21:44;;;;;;;5.50;5.00;;;24.70;82.40;;;;;;7517303;26;20275;-80
2024/05/04 16:25:10;;;;;;;5.25;4.85;;;24.60;83.30;;;;;;7502839;26;20302;-78
2024/05/04 16:28:33;;;;;;;5.10;4.80;;;24.80;83.30;;;;;;7526116;26;20329;-80
2024/05/04 16:31:56;;;;;;;4.72;4.43;;;24.70;83.40;;;;;;7527540;26;20663;-80
2024/05/04 16:35:19;;;;;;;5.60;5.20;;;24.50;83.50;;;;;;7506623;26;20232;-78
2024/05/04 16:38:42;;;;;;;5.32;4.93;;;24.50;84.20;;;;;;7511722;26;20263;-79
2024/05/04 16:42:07;;;;;;;8.75;8.00;;;24.50;83.80;;;;;;7521219;26;20232;-80
2024/05/04 16:45:30;;;;;;;5.72;5.28;;;24.50;83.10;;;;;;7523307;26;20228;-80
2024/05/04 16:48:53;;;;;;;6.55;5.93;;;24.30;82.60;;;;;;7527385;26;20236;-80
2024/05/04 16:52:16;;;;;;;5.65;5.25;;;24.20;83.00;;;;;;7516408;26;20268;-80
2024/05/04 16:55:39;;;;;;;5.90;5.50;;;24.00;83.40;;;;;;7518724;26;20279;-80
2024/05/04 16:59:05;;;;;;;5.80;5.40;;;24.00;83.50;;;;;;7512313;26;20727;-79
2024/05/04 17:02:28;;;;;;;6.25;5.85;;;24.00;84.70;;;;;;7486066;26;20233;-81
2024/05/04 17:05:51;;;;;;;5.88;5.50;;;24.00;84.70;;;;;;7526630;26;20270;-79
2024/05/04 17:09:15;;;;;;;8.05;7.45;;;24.00;85.40;;;;;;7525060;26;20259;-78
2024/05/04 17:12:38;;;;;;;7.55;6.95;;;24.00;85.40;;;;;;7524874;26;20747;-80
2024/05/04 17:16:09;;;;;;;6.45;6.05;;;24.00;85.80;;;;;;7526296;26;20232;-79
2024/05/04 17:19:34;;;;;;;10.10;9.35;;;23.80;86.30;;;;;;7504354;26;20564;-78
2024/05/04 17:22:57;;;;;;;8.43;6.68;;;23.80;86.60;;;;;;7507320;26;20229;-80
2024/05/04 17:26:20;;;;;;;6.22;5.90;;;23.70;87.60;;;;;;7509765;26;20233;-79
2024/05/04 17:29:43;;;;;;;7.18;6.63;;;23.60;88.60;;;;;;7503526;26;20271;-79
2024/05/04 17:33:10;;;;;;;7.05;6.50;;;23.60;89.50;;;;;;7494566;26;20228;-78
2024/05/04 17:36:33;;;;;;;7.60;6.97;;;23.60;89.30;;;;;;7524834;26;20271;-79
2024/05/04 17:39:56;;;;;;;6.22;5.88;;;23.50;89.60;;;;;;7512551;26;20337;-78